Holmen, WI

11:24 AM CDT on June 03, 2015 (GMT -0500)
La Crosse Municipal | | Change Station
CLOSE
Current Station
Airport
Location: La Crosse,
Elevation: 653 ft
Nearby Weather Stations

Elev 653 ft 43.88 °N, 91.25 °W | Updated 31 minutes ago

Partly Cloudy
Partly Cloudy
73 °F
Feels Like 73 °F
N
21
Wind Variable Wind from South
Gusts 29 mph

Today
High -- | Low -- °F
--% Chance of Precip.
Yesterday
High -- | Low -- °F
Precip. -- in
5:24 AM 8:42 PM
Full, 99% visible
Pressure 29.92 in
Visibility 10.0 miles
Clouds Few 8000 ft
Scattered Clouds 9000 ft
Dew Point 55 °F
Humidity 53%
Rainfall 0.00 in
Snow Depth Not available.
UV 7 out of 12
Pollen 5.60 out of 12
Air Quality Not available.
Flu Activity Sporadic
METAR KLSE 031553Z 17018G25KT 10SM FEW080 SCT090 23/13 A2993 RMK AO2 SLP130 T02280128

More Conditions Fewer Conditions

Pressure 29.92 in
Visibility 10.0 miles
Clouds Few 8000 ft
Scattered Clouds 9000 ft
Dew Point 55 °F
Humidity 53%
Rainfall 0.00 in
Snow Depth Not available.
UV 7 out of 12
Pollen 5.60 out of 12
Air Quality Not available.
Flu Activity Sporadic
METAR KLSE 031553Z 17018G25KT 10SM FEW080 SCT090 23/13 A2993 RMK AO2 SLP130 T02280128

More Conditions Fewer Conditions

10-Day Weather Forecast

×

Almanac

Astronomy

Jun. 03, 2015 Rise Set
Actual Time
Civil Twilight
Nautical Twilight
Astronomical Twilight
Moon
Length of Visible Light
Length of Day
Tomorrow will be .
, % of the Moon is Illuminated

Today's Extremes

State Highs State Lows

Community

WunderPhotos

Upload Photos

1,826,246 photos uploaded!

WunderBlogs® & News

Nearby

Air Quality

  Air Quality AQ Index Pollutant
Not available.

Snow Depth

Station Depth Elevation

Earthquake Activity

City Distance Mag. Time & Date
Minimum magnitude displayed is 2.5.

Coastal Water Temperatures

Place Temperature

Stations

Nearby Weather Stations

Station Location Temp. Windchill Dew Point Humidity Wind Precip. Elev Updated Type